createdAt,value
2018-12-04T00:01:45.235Z,53.49
2018-12-04T00:04:12.843Z,52.93
2018-12-04T00:06:40.548Z,53.50
2018-12-04T00:09:08.167Z,53.32
2018-12-04T00:11:35.875Z,53.16
2018-12-04T00:14:03.505Z,53.25
2018-12-04T00:16:31.195Z,52.81
2018-12-04T00:18:58.808Z,53.49
2018-12-04T00:21:26.520Z,53.35
2018-12-04T00:23:54.123Z,52.88
2018-12-04T00:26:21.727Z,53.23
2018-12-04T00:28:49.336Z,52.77
2018-12-04T00:31:16.944Z,53.15
2018-12-04T00:33:44.648Z,52.77
2018-12-04T00:36:12.273Z,53.19
2018-12-04T00:38:39.956Z,53.20
2018-12-04T00:41:07.580Z,53.06
2018-12-04T00:43:35.276Z,52.94
2018-12-04T00:46:02.890Z,53.22
2018-12-04T00:48:30.499Z,53.66
2018-12-04T00:50:58.144Z,52.94
2018-12-04T00:53:25.779Z,52.95
2018-12-04T00:55:53.400Z,52.88
2018-12-04T00:58:21.006Z,53.54
2018-12-04T01:00:48.620Z,52.91
2018-12-04T01:03:16.231Z,53.62
2018-12-04T01:05:43.941Z,52.92
2018-12-04T01:08:11.542Z,53.17
2018-12-04T01:10:39.285Z,52.85
2018-12-04T01:13:07.125Z,52.96
2018-12-04T01:15:34.730Z,53.66
2018-12-04T01:18:02.368Z,52.80
2018-12-04T01:20:30.000Z,53.04
2018-12-04T01:22:57.616Z,52.85
2018-12-04T01:25:25.234Z,53.31
2018-12-04T01:27:52.867Z,53.22
2018-12-04T01:30:20.497Z,53.10
2018-12-04T01:32:48.198Z,53.48
2018-12-04T01:35:15.903Z,53.56
2018-12-04T01:37:43.591Z,52.87
2018-12-04T01:40:11.279Z,53.59
2018-12-04T01:42:38.887Z,52.91
2018-12-04T01:45:06.882Z,53.25
2018-12-04T01:47:34.595Z,53.21
2018-12-04T01:50:02.203Z,53.28
2018-12-04T01:52:29.841Z,52.71
2018-12-04T01:54:57.451Z,52.98
2018-12-04T01:57:25.079Z,53.43
2018-12-04T01:59:52.691Z,52.89
2018-12-04T02:02:20.304Z,52.54
2018-12-04T02:04:47.937Z,53.25
2018-12-04T02:07:15.536Z,53.21
2018-12-04T02:09:43.275Z,53.37
2018-12-04T02:12:10.897Z,53.35
2018-12-04T02:14:38.571Z,52.67
2018-12-04T02:17:06.183Z,52.81
2018-12-04T02:19:33.800Z,52.69
2018-12-04T02:22:01.448Z,52.61
2018-12-04T02:24:29.119Z,52.78
2018-12-04T02:26:56.731Z,53.24
2018-12-04T02:29:24.464Z,52.80
2018-12-04T02:31:52.089Z,52.52
2018-12-04T02:34:19.772Z,52.54
2018-12-04T02:36:47.384Z,53.38
2018-12-04T02:39:15.051Z,53.31
2018-12-04T02:41:42.743Z,52.49
2018-12-04T02:44:10.351Z,52.31
2018-12-04T02:46:38.000Z,52.86
2018-12-04T02:49:05.635Z,52.50
2018-12-04T02:51:33.273Z,52.96
2018-12-04T02:54:00.884Z,53.06
2018-12-04T02:56:28.500Z,52.57
2018-12-04T02:58:56.204Z,52.81
2018-12-04T03:01:23.849Z,53.21
2018-12-04T03:03:51.455Z,52.54
2018-12-04T03:06:19.057Z,52.83
2018-12-04T03:08:46.679Z,52.43
2018-12-04T03:11:14.407Z,53.24
2018-12-04T03:13:42.020Z,53.15
2018-12-04T03:16:09.646Z,52.80
2018-12-04T03:18:37.268Z,52.96
2018-12-04T03:21:04.879Z,52.90
2018-12-04T03:23:32.511Z,52.90
2018-12-04T03:26:00.115Z,53.13
2018-12-04T03:28:27.835Z,52.66
2018-12-04T03:30:55.447Z,52.53
2018-12-04T03:33:28.634Z,53.32
2018-12-04T03:35:56.343Z,52.56
2018-12-04T03:38:23.964Z,52.79
2018-12-04T03:40:51.605Z,52.55
2018-12-04T03:43:19.230Z,52.67
2018-12-04T03:45:46.844Z,52.96
2018-12-04T03:48:14.470Z,52.71
2018-12-04T03:50:42.072Z,52.83
2018-12-04T03:53:09.785Z,52.57
2018-12-04T03:55:37.404Z,53.16
2018-12-04T03:58:05.099Z,52.73
2018-12-04T04:00:32.703Z,53.12
2018-12-04T04:03:00.578Z,53.58
2018-12-04T04:05:28.211Z,52.90
2018-12-04T04:07:55.857Z,53.46
2018-12-04T04:10:23.510Z,52.72
2018-12-04T04:12:51.137Z,53.44
2018-12-04T04:15:18.818Z,53.29
2018-12-04T04:17:46.528Z,53.12
2018-12-04T04:20:14.752Z,53.54
2018-12-04T04:22:42.846Z,53.52
2018-12-04T04:25:10.649Z,52.79
2018-12-04T04:27:38.520Z,53.36
2018-12-04T04:30:06.790Z,53.55
2018-12-04T04:32:35.091Z,53.19
2018-12-04T04:35:03.363Z,53.29
2018-12-04T04:37:31.203Z,52.83
2018-12-04T04:39:59.047Z,52.97
2018-12-04T04:42:27.129Z,52.95
2018-12-04T04:44:55.390Z,53.36
2018-12-04T04:47:23.524Z,52.68
2018-12-04T04:49:51.461Z,53.29
2018-12-04T04:52:19.261Z,52.90
2018-12-04T04:54:47.322Z,52.66
2018-12-04T04:57:15.650Z,53.22
2018-12-04T04:59:43.897Z,52.83
2018-12-04T05:02:11.719Z,52.87
2018-12-04T05:04:39.545Z,52.79
2018-12-04T05:07:07.280Z,53.44
2018-12-04T05:09:35.108Z,53.11
2018-12-04T05:12:02.826Z,52.67
2018-12-04T05:14:30.661Z,52.82
2018-12-04T05:16:58.407Z,52.93
2018-12-04T05:19:26.343Z,53.46
2018-12-04T05:21:54.124Z,53.47
2018-12-04T05:24:21.828Z,52.76
2018-12-04T05:26:49.731Z,53.01
2018-12-04T05:29:17.524Z,53.19
2018-12-04T05:31:45.345Z,52.96
2018-12-04T05:34:13.137Z,52.68
2018-12-04T05:36:40.934Z,52.66
2018-12-04T05:39:08.648Z,53.04
2018-12-04T05:41:36.445Z,52.83
2018-12-04T05:44:04.203Z,53.19
2018-12-04T05:46:32.032Z,53.45
2018-12-04T05:48:59.835Z,52.95
2018-12-04T05:51:27.641Z,53.10
2018-12-04T05:53:55.424Z,53.43
2018-12-04T05:56:23.215Z,52.97
2018-12-04T05:58:51.055Z,52.66
2018-12-04T06:01:18.875Z,53.41
2018-12-04T06:03:46.642Z,53.28
2018-12-04T06:06:14.558Z,53.51
2018-12-04T06:08:42.376Z,53.37
2018-12-04T06:11:10.254Z,53.10
2018-12-04T06:13:38.042Z,52.66
2018-12-04T06:16:05.888Z,53.03
2018-12-04T06:18:33.679Z,52.82
2018-12-04T06:21:01.651Z,53.02
2018-12-04T06:23:29.438Z,52.97
2018-12-04T06:25:57.147Z,52.81
2018-12-04T06:28:24.911Z,52.74
2018-12-04T06:30:52.659Z,53.45
2018-12-04T06:33:20.297Z,53.25
2018-12-04T06:35:47.911Z,53.32
2018-12-04T06:38:15.540Z,52.78
2018-12-04T06:40:43.162Z,52.76
2018-12-04T06:43:10.771Z,53.35
2018-12-04T06:45:38.393Z,53.44
2018-12-04T06:48:06.006Z,52.84
2018-12-04T06:50:33.684Z,52.84
2018-12-04T06:53:01.399Z,52.88
2018-12-04T06:55:29.028Z,52.80
2018-12-04T06:57:58.105Z,53.49
2018-12-04T07:00:25.712Z,53.24
2018-12-04T07:02:53.327Z,53.04
2018-12-04T07:05:21.045Z,53.01
2018-12-04T07:07:48.705Z,53.43
2018-12-04T07:10:16.333Z,52.81
2018-12-04T07:12:44.049Z,52.84
2018-12-04T07:15:11.651Z,53.29
2018-12-04T07:17:39.258Z,53.38
2018-12-04T07:20:07.392Z,53.55
2018-12-04T07:22:34.994Z,52.75
2018-12-04T07:25:02.648Z,53.08
2018-12-04T07:27:30.265Z,53.22
2018-12-04T07:29:57.981Z,53.48
2018-12-04T07:32:25.654Z,53.60
2018-12-04T07:34:53.267Z,53.44
2018-12-04T07:37:20.871Z,52.58
2018-12-04T07:39:48.535Z,53.16
2018-12-04T07:42:16.175Z,53.25
2018-12-04T07:44:43.789Z,53.00
2018-12-04T07:47:11.400Z,52.68
2018-12-04T07:49:39.011Z,52.54
2018-12-04T07:52:06.712Z,52.57
2018-12-04T07:54:34.380Z,52.69
2018-12-04T07:57:02.012Z,53.00
2018-12-04T07:59:29.624Z,53.17
2018-12-04T08:01:57.280Z,53.15
2018-12-04T08:04:24.949Z,53.28
2018-12-04T08:06:52.563Z,53.06
2018-12-04T08:09:20.247Z,53.31
2018-12-04T08:11:47.927Z,52.70
2018-12-04T08:14:15.580Z,52.89
2018-12-04T08:16:43.199Z,53.34
2018-12-04T08:19:10.826Z,53.19
2018-12-04T08:21:38.464Z,53.40
2018-12-04T08:24:06.075Z,52.78
2018-12-04T08:26:34.176Z,53.33
2018-12-04T08:29:01.902Z,52.48
2018-12-04T08:31:29.512Z,52.16
2018-12-04T08:33:57.132Z,53.07
2018-12-04T08:36:24.890Z,53.10
2018-12-04T08:38:52.624Z,52.37
2018-12-04T08:41:20.484Z,52.94
2018-12-04T08:43:48.283Z,52.98
2018-12-04T08:46:16.062Z,52.24
2018-12-04T08:48:43.856Z,52.91
2018-12-04T08:51:11.650Z,52.18
2018-12-04T08:53:39.427Z,52.05
2018-12-04T08:56:07.257Z,52.65
2018-12-04T08:58:35.039Z,52.54
2018-12-04T09:01:02.844Z,52.63
2018-12-04T09:03:30.737Z,51.90
2018-12-04T09:05:58.574Z,51.72
2018-12-04T09:08:26.423Z,51.85
2018-12-04T09:10:54.204Z,52.39
2018-12-04T09:13:21.997Z,52.23
2018-12-04T09:15:49.814Z,51.94
2018-12-04T09:18:17.551Z,51.75
2018-12-04T09:20:45.363Z,51.47
2018-12-04T09:23:13.245Z,52.04
2018-12-04T09:25:41.118Z,51.91
2018-12-04T09:28:08.934Z,51.51
2018-12-04T09:30:36.730Z,52.16
2018-12-04T09:33:04.588Z,52.23
2018-12-04T09:35:32.404Z,51.30
2018-12-04T09:38:00.287Z,51.40
2018-12-04T09:40:28.095Z,51.05
2018-12-04T09:42:55.979Z,51.28
2018-12-04T09:45:23.779Z,51.34
2018-12-04T09:47:51.589Z,51.20
2018-12-04T09:50:19.374Z,50.96
2018-12-04T09:52:47.180Z,50.80
2018-12-04T09:55:14.904Z,51.49
2018-12-04T09:57:42.769Z,50.95
2018-12-04T10:00:10.530Z,50.92
2018-12-04T10:02:38.353Z,51.82
2018-12-04T10:05:06.167Z,51.04
2018-12-04T10:07:33.923Z,51.85
2018-12-04T10:10:01.730Z,51.60
2018-12-04T10:12:29.546Z,51.66
2018-12-04T10:14:57.278Z,51.44
2018-12-04T10:17:25.089Z,51.70
2018-12-04T10:19:52.852Z,51.12
2018-12-04T10:22:20.623Z,50.59
2018-12-04T10:24:48.485Z,50.79
2018-12-04T10:27:16.286Z,50.96
2018-12-04T10:29:44.095Z,51.21
2018-12-04T10:32:11.970Z,50.94
2018-12-04T10:34:39.840Z,51.00
2018-12-04T10:37:07.567Z,51.07
2018-12-04T10:39:35.347Z,51.57
2018-12-04T10:42:03.112Z,51.55
2018-12-04T10:44:30.966Z,51.66
2018-12-04T10:46:58.787Z,50.94
2018-12-04T10:49:26.659Z,50.77
2018-12-04T10:51:54.387Z,51.09
2018-12-04T10:54:22.166Z,50.21
2018-12-04T10:56:50.426Z,50.93
2018-12-04T10:59:18.236Z,51.38
2018-12-04T11:01:51.282Z,50.92
2018-12-04T11:04:19.046Z,51.52
2018-12-04T11:06:46.823Z,51.42
2018-12-04T11:09:14.699Z,51.05
2018-12-04T11:11:42.591Z,51.28
2018-12-04T11:14:10.315Z,51.25
2018-12-04T11:16:38.085Z,51.85
2018-12-04T11:19:05.883Z,51.16
2018-12-04T11:21:33.633Z,51.77
2018-12-04T11:24:01.373Z,51.14
2018-12-04T11:26:29.137Z,50.64
2018-12-04T11:28:56.920Z,51.15
2018-12-04T11:31:24.660Z,51.35
2018-12-04T11:33:52.446Z,51.45
2018-12-04T11:36:20.307Z,51.07
2018-12-04T11:38:48.177Z,51.21
2018-12-04T11:41:16.022Z,51.08
2018-12-04T11:43:43.808Z,50.51
2018-12-04T11:46:11.583Z,51.38
2018-12-04T11:48:39.367Z,51.13
2018-12-04T11:51:07.196Z,50.71
2018-12-04T11:53:35.082Z,50.97
2018-12-04T11:56:02.854Z,51.06
2018-12-04T11:58:30.634Z,51.52
2018-12-04T12:00:58.524Z,51.00
2018-12-04T12:03:26.324Z,50.61
2018-12-04T12:05:54.088Z,51.35
2018-12-04T12:08:21.972Z,50.63
2018-12-04T12:10:49.820Z,50.62
2018-12-04T12:13:17.575Z,51.28
2018-12-04T12:15:45.342Z,50.59
2018-12-04T12:18:13.097Z,51.03
2018-12-04T12:20:41.516Z,50.84
2018-12-04T12:23:09.287Z,51.07
2018-12-04T12:25:37.273Z,51.55
2018-12-04T12:28:05.250Z,51.34
2018-12-04T12:30:32.960Z,50.79
2018-12-04T12:33:00.753Z,50.81
2018-12-04T12:35:28.531Z,50.88
2018-12-04T12:37:56.301Z,50.86
2018-12-04T12:40:24.567Z,51.08
2018-12-04T12:42:52.500Z,51.48
2018-12-04T12:45:20.419Z,51.56
2018-12-04T12:47:48.331Z,51.52
2018-12-04T12:50:16.213Z,50.86
2018-12-04T12:52:44.531Z,50.89
2018-12-04T12:55:12.476Z,51.09
2018-12-04T12:57:40.294Z,50.85
2018-12-04T13:00:08.604Z,51.13
2018-12-04T13:02:36.372Z,50.84
2018-12-04T13:05:04.243Z,51.27
2018-12-04T13:07:32.086Z,51.06
2018-12-04T13:09:59.973Z,50.84
2018-12-04T13:12:27.719Z,51.01
2018-12-04T13:14:55.547Z,50.86
2018-12-04T13:17:23.340Z,50.97
2018-12-04T13:19:51.187Z,51.05
2018-12-04T13:22:19.009Z,51.01
2018-12-04T13:24:46.757Z,50.82
2018-12-04T13:27:14.635Z,50.80
2018-12-04T13:29:42.492Z,51.07
2018-12-04T13:32:10.250Z,50.77
2018-12-04T13:34:38.002Z,50.99
2018-12-04T13:37:05.768Z,50.77
2018-12-04T13:39:34.583Z,51.41
2018-12-04T13:42:02.462Z,51.02
2018-12-04T13:44:30.277Z,50.88
2018-12-04T13:46:58.183Z,50.98
2018-12-04T13:49:27.192Z,51.62
2018-12-04T13:51:55.036Z,50.99
2018-12-04T13:54:22.914Z,50.99
2018-12-04T13:56:50.674Z,50.89
2018-12-04T13:59:18.561Z,51.12
2018-12-04T14:01:46.300Z,50.84
2018-12-04T14:04:17.130Z,51.24
2018-12-04T14:06:43.878Z,50.95
2018-12-04T14:09:11.790Z,50.85
2018-12-04T14:11:39.547Z,50.83
2018-12-04T14:14:07.361Z,51.09
2018-12-04T14:16:35.121Z,51.45
2018-12-04T14:19:02.925Z,51.39
2018-12-04T14:21:30.788Z,51.57
2018-12-04T14:23:58.537Z,51.33
2018-12-04T14:26:26.289Z,51.00
2018-12-04T14:28:54.065Z,51.34
2018-12-04T14:31:21.923Z,51.48
2018-12-04T14:33:49.708Z,51.49
2018-12-04T14:36:17.491Z,51.01
2018-12-04T14:38:45.342Z,51.59
2018-12-04T14:41:13.208Z,51.65
2018-12-04T14:43:41.046Z,51.68
2018-12-04T14:46:08.918Z,51.42
2018-12-04T14:48:36.768Z,51.15
2018-12-04T14:51:04.682Z,51.33
2018-12-04T14:53:32.652Z,51.04
2018-12-04T14:56:00.468Z,51.07
2018-12-04T14:58:28.180Z,51.06
2018-12-04T15:00:56.059Z,51.20
2018-12-04T15:03:23.940Z,51.01
2018-12-04T15:05:51.729Z,51.56
2018-12-04T15:08:19.488Z,51.15
2018-12-04T15:10:47.182Z,51.44
2018-12-04T15:13:15.079Z,51.37
2018-12-04T15:15:42.916Z,51.14
2018-12-04T15:18:10.622Z,51.25
2018-12-04T15:20:38.489Z,51.74
2018-12-04T15:23:06.289Z,51.31
2018-12-04T15:25:34.407Z,51.11
2018-12-04T15:28:02.317Z,51.07
2018-12-04T15:30:30.126Z,51.23
2018-12-04T15:32:58.098Z,51.12
2018-12-04T15:35:25.970Z,51.92
2018-12-04T15:37:53.848Z,51.24
2018-12-04T15:40:21.702Z,51.40
2018-12-04T15:42:49.478Z,51.62
2018-12-04T15:45:17.244Z,51.42
2018-12-04T15:47:45.083Z,51.19
2018-12-04T15:50:12.851Z,51.19
2018-12-04T15:52:41.133Z,51.27
2018-12-04T15:55:09.032Z,51.74
2018-12-04T15:57:36.844Z,51.90
2018-12-04T16:00:06.030Z,51.39
2018-12-04T16:02:34.280Z,51.28
2018-12-04T16:05:02.554Z,51.71
2018-12-04T16:07:32.440Z,51.92
2018-12-04T16:10:00.243Z,51.48
2018-12-04T16:12:28.054Z,51.19
2018-12-04T16:14:55.916Z,51.95
2018-12-04T16:17:24.309Z,51.15
2018-12-04T16:19:52.418Z,51.17
2018-12-04T16:22:20.810Z,51.36
2018-12-04T16:24:48.650Z,51.49
2018-12-04T16:27:16.412Z,51.33
2018-12-04T16:29:44.262Z,52.01
2018-12-04T16:32:12.749Z,51.61
2018-12-04T16:34:41.036Z,51.34
2018-12-04T16:37:08.967Z,51.25
2018-12-04T16:39:36.748Z,51.21
2018-12-04T16:42:04.532Z,51.95
2018-12-04T16:44:32.382Z,51.57
2018-12-04T16:47:00.162Z,51.31
2018-12-04T16:49:28.027Z,51.16
2018-12-04T16:51:55.775Z,51.84
2018-12-04T16:54:23.648Z,51.10
2018-12-04T16:56:51.603Z,51.13
2018-12-04T16:59:19.371Z,51.13
2018-12-04T17:01:47.229Z,51.06
2018-12-04T17:04:15.027Z,52.04
2018-12-04T17:06:42.875Z,51.95
2018-12-04T17:09:10.702Z,51.95
2018-12-04T17:11:38.549Z,52.43
2018-12-04T17:14:06.375Z,51.99
2018-12-04T17:16:34.236Z,52.22
2018-12-04T17:19:02.099Z,51.78
2018-12-04T17:21:29.943Z,52.30
2018-12-04T17:23:57.746Z,51.81
2018-12-04T17:26:25.644Z,51.93
2018-12-04T17:28:53.420Z,52.33
2018-12-04T17:31:21.195Z,52.28
2018-12-04T17:33:49.047Z,51.73
2018-12-04T17:36:16.871Z,52.09
2018-12-04T17:38:44.649Z,52.11
2018-12-04T17:41:12.400Z,52.15
2018-12-04T17:43:40.272Z,51.88
2018-12-04T17:46:08.050Z,51.64
2018-12-04T17:48:36.086Z,51.84
2018-12-04T17:51:04.341Z,51.35
2018-12-04T17:53:32.528Z,52.03
2018-12-04T17:56:00.745Z,51.24
2018-12-04T17:58:28.905Z,51.37
2018-12-04T18:00:56.665Z,51.33
2018-12-04T18:03:24.494Z,52.07
2018-12-04T18:05:52.317Z,51.88
2018-12-04T18:08:20.200Z,51.26
2018-12-04T18:10:48.061Z,51.25
2018-12-04T18:13:15.806Z,51.39
2018-12-04T18:15:43.666Z,51.78
2018-12-04T18:18:11.454Z,51.59
2018-12-04T18:20:39.260Z,51.88
2018-12-04T18:23:06.915Z,51.75
2018-12-04T18:25:34.542Z,52.10
2018-12-04T18:28:02.183Z,52.34
2018-12-04T18:30:29.884Z,49.95
2018-12-04T18:32:57.505Z,50.28
2018-12-04T18:35:25.157Z,49.32
2018-12-04T18:37:52.756Z,51.29
2018-12-04T18:40:20.461Z,51.85
2018-12-04T18:42:48.097Z,50.89
2018-12-04T18:45:15.712Z,51.16
2018-12-04T18:47:43.605Z,50.50
2018-12-04T18:50:11.744Z,51.04
2018-12-04T18:52:39.511Z,49.73
2018-12-04T18:55:07.366Z,51.20
2018-12-04T18:57:35.176Z,51.48
2018-12-04T19:00:03.018Z,51.64
2018-12-04T19:02:30.797Z,51.24
2018-12-04T19:04:58.793Z,52.12
2018-12-04T19:07:26.613Z,52.18
2018-12-04T19:09:54.374Z,52.08
2018-12-04T19:12:22.146Z,51.48
2018-12-04T19:14:50.029Z,52.28
2018-12-04T19:17:17.787Z,51.89
2018-12-04T19:19:45.549Z,51.70
2018-12-04T19:22:13.726Z,52.27
2018-12-04T19:24:41.542Z,51.77
2018-12-04T19:27:09.339Z,52.26
2018-12-04T19:29:37.133Z,51.43
2018-12-04T19:32:04.970Z,52.23
2018-12-04T19:34:32.753Z,51.99
2018-12-04T19:37:00.506Z,51.57
2018-12-04T19:39:28.331Z,51.81
2018-12-04T19:41:56.072Z,52.00
2018-12-04T19:44:23.955Z,52.51
2018-12-04T19:46:51.850Z,52.36
2018-12-04T19:49:20.153Z,52.22
2018-12-04T19:51:48.246Z,51.85
2018-12-04T19:54:16.090Z,52.50
2018-12-04T19:56:44.006Z,52.34
2018-12-04T19:59:11.806Z,52.48
2018-12-04T20:01:39.547Z,52.49
2018-12-04T20:04:07.165Z,52.00
2018-12-04T20:06:34.795Z,52.46
2018-12-04T20:09:04.468Z,52.30
2018-12-04T20:11:32.499Z,52.48
2018-12-04T20:14:00.289Z,52.65
2018-12-04T20:16:28.160Z,52.11
2018-12-04T20:18:56.076Z,51.90
2018-12-04T20:21:23.856Z,51.97
2018-12-04T20:23:51.636Z,52.51
2018-12-04T20:26:19.265Z,52.77
2018-12-04T20:28:47.192Z,52.78
2018-12-04T20:31:15.270Z,52.89
2018-12-04T20:33:43.624Z,52.24
2018-12-04T20:36:12.496Z,52.80
2018-12-04T20:38:40.616Z,52.34
2018-12-04T20:41:08.535Z,52.81
2018-12-04T20:43:36.683Z,52.32
2018-12-04T20:46:06.022Z,52.89
2018-12-04T20:48:34.095Z,52.92
2018-12-04T20:51:01.930Z,52.37
2018-12-04T20:53:30.038Z,52.38
2018-12-04T20:55:58.133Z,52.80
2018-12-04T20:58:26.089Z,52.43
2018-12-04T21:00:53.960Z,53.06
2018-12-04T21:03:21.740Z,52.72
2018-12-04T21:05:49.557Z,52.90
2018-12-04T21:08:17.196Z,52.34
2018-12-04T21:10:44.927Z,53.28
2018-12-04T21:13:14.555Z,52.79
2018-12-04T21:15:42.327Z,53.22
2018-12-04T21:18:09.936Z,53.12
2018-12-04T21:20:37.569Z,53.41
2018-12-04T21:23:05.467Z,53.70
2018-12-04T21:25:33.321Z,53.56
2018-12-04T21:28:06.454Z,52.74
2018-12-04T21:31:41.174Z,52.87
2018-12-04T21:34:14.256Z,53.58
2018-12-04T21:36:47.265Z,53.38
2018-12-04T21:39:24.889Z,52.67
2018-12-04T21:41:59.135Z,53.39
2018-12-04T21:44:32.381Z,53.22
2018-12-04T21:47:05.496Z,52.80
2018-12-04T21:49:33.289Z,53.31
2018-12-04T21:52:01.109Z,53.48
2018-12-04T21:54:28.931Z,53.17
2018-12-04T21:56:56.795Z,53.50
2018-12-04T21:59:24.590Z,52.90
2018-12-04T22:01:52.395Z,53.75
2018-12-04T22:04:20.256Z,53.55
2018-12-04T22:06:48.151Z,53.67
2018-12-04T22:09:16.045Z,53.43
2018-12-04T22:11:43.864Z,52.97
2018-12-04T22:14:11.767Z,53.64
2018-12-04T22:16:39.609Z,53.80
2018-12-04T22:19:07.412Z,53.15
2018-12-04T22:21:35.276Z,53.58
2018-12-04T22:24:03.171Z,53.36
2018-12-04T22:26:30.991Z,53.50
2018-12-04T22:28:58.762Z,53.11
2018-12-04T22:31:26.415Z,53.52
2018-12-04T22:33:54.115Z,53.85
2018-12-04T22:36:21.749Z,53.69
2018-12-04T22:38:49.378Z,53.67
2018-12-04T22:41:17.009Z,53.83
2018-12-04T22:43:44.666Z,53.21
2018-12-04T22:46:12.319Z,53.83
2018-12-04T22:48:39.928Z,53.58
2018-12-04T22:51:07.548Z,53.47
2018-12-04T22:53:35.163Z,53.96
2018-12-04T22:56:02.817Z,53.74
2018-12-04T22:58:30.433Z,53.25
2018-12-04T23:00:58.048Z,53.57
2018-12-04T23:03:25.901Z,53.83
2018-12-04T23:05:53.506Z,53.70
2018-12-04T23:08:21.120Z,53.40
2018-12-04T23:10:49.743Z,53.63
2018-12-04T23:13:17.415Z,53.29
2018-12-04T23:15:45.010Z,53.13
2018-12-04T23:18:13.406Z,53.99
2018-12-04T23:20:41.011Z,53.93
2018-12-04T23:23:08.716Z,54.17
2018-12-04T23:25:36.439Z,53.83
2018-12-04T23:28:04.128Z,53.72
2018-12-04T23:30:31.790Z,53.69
2018-12-04T23:32:59.421Z,53.96
2018-12-04T23:35:27.046Z,54.24
2018-12-04T23:37:54.684Z,54.61
2018-12-04T23:40:22.323Z,54.59
2018-12-04T23:42:49.930Z,54.65
2018-12-04T23:45:17.552Z,53.71
2018-12-04T23:47:45.172Z,54.74
2018-12-04T23:50:12.881Z,54.46
2018-12-04T23:52:40.500Z,54.64
2018-12-04T23:55:08.106Z,54.54
2018-12-04T23:57:35.720Z,55.07
